Atlanta, Georgia
Traffic Map
Current Weather Conditions
Atlanta, Georgia
Clear
Clear
19°
Feels Like: 19°
Wind Chill: 19° Ceiling: Unl
Heat Index: 19° Visibility: 10mi
Dew Point: Wind: 8mph
Humidity: 30% Direction: 330° (NNW)
Pressure: 29.93in Gusts: 0mph
Raw Report DataKATL 240052Z 33007KT 10SM CLR 19/01 A2993 RMK AO2 SLP131 T01940011
Traffic Incident Summary
Active as of:
Severity:
Category:
InformationThere was an issue retrieving the traffic information for this location. Please try a different location or try again shortly.
Advertisements
At Last! Intellicast now available for iPhone and Android